FSIA/SEZ METAR and TAF weather

Enter ICAO airport designator
Station Type Date Time Source
FSIA METAR 2019/08/24 09:00 UTC NOAA

FSIA 240900Z 13012KT 9999 SCT014 28/25 Q1013 NOSIG


Station Type Date Time Source
FSIA Decoded METAR 2019/08/24 09:00 UTC NOAA

Station name not available
Aug 24, 2019 - 05:00 AM EDT / 2019.08.24 0900 UTC
Wind: from the SE (130 degrees) at 14 MPH (12 KT):0
Visibility: greater than 7 mile(s):0
Sky conditions: partly cloudy
Temperature: 82 F (28 C)
Dew Point: 77 F (25 C)
Relative Humidity: 83%
Pressure (altimeter): 29.91 in. Hg (1013 hPa)
ob: FSIA 240900Z 13012KT 9999 SCT014 28/25 Q1013 NOSIG
cycle: 9

Station Type Date Time Source
FSIA TAF 2019/08/24 06:12 UTC NOAA

TAF FSIA 240501Z 2406/2506 13015G25KT 9999 SCT018 PROB40
TEMPO 2412/2418 9999 -SHRA BKN018

Example: see airport list